עמוד ראשי
METAR-TAF:

METAR-TAF

שדות תעופה :

Gran Canaria, ספרד

קו רוחב: 27-56N, קו אורך: 015-23W, גובה: 23מטר

תצפית מזג אוויר נוכחית

הדו"ח נערך לפני 16דקות, בשעה 09:30 UTC
רוח 27קשר מכיוון צפון/צפון-מזרח
טמפרטורת 23 צלסיוס
לחות 61%
לחץ 1021 hPa
ראות 10 קילומטר או יותר
מעט עננים בגובה 2500רגל
עננים בינוניים בגובה 3500רגל

METAR: GCLP 190930Z 02027KT 9999 FEW025 BKN035 23/15 Q1021 NOSIG

זמן: 10:46 (09:46 UTC)

תחזית

הדו"ח נערך לפני 1 שעות ו 46דקות, בשעה 08:00 UTC
תחזית בתוקף מ 19 ב 09 UTC עד 20 ב 09 UTC
רוח 20קשר מכיוון צפון
ראות 10 קילומטר או יותר
עננים פזורים בגובה 2500רגל
הסתברות 30%
19 ב 09 UTC עד 19 ב 21 UTC
רוח 20קשר מכיוון צפון עם משבים עד 30קשר

TAF: GCLP 190800Z 1909/2009 01020KT 9999 SCT025 TX25/1914Z TN20/2006Z PROB30 1909/1921 01020G30KT

תצפיות ותחזיות מזג אוויר לגבי יותר מ- 4,000 שדות תעופה ברחבי העולם. דוחות METAR ו- TAF.

התחנות הזמינות מסומנות בנקודות צהובות ואדומות על גבי המפה.

העבר את העכבר לנקודה הצבעונית על מנת לראות את שם התחנה.

לאחר מכן, לחץ כדי לראות את תוכן ואת תחזיות מזג האוויר.

כדי לשנות את המפה: לחץ על הכפתורים הירוקים עם הפלוס השחור כדי להתקרב; על הכפתור הירוק עם המקף כדי להתרחק; או בחיצים הירוקים למפות סמוכות.


METAR-TAF: